Time;durP1;ratioP1;P1;durP2;ratioP2;P2;SDS_P1;SDS_P2;PMS_P1;PMS_P2;Temp;Humidity;BMP_temperature;BMP_pressure;BME280_temperature;BME280_humidity;BME280_pressure;Samples;Min_cycle;Max_cycle;Signal;HPM_P1;HPM_P2
2021/06/04 00:01:58;;;;;;;12.75;11.57;;;20.00;70.60;;;;;;5019482;28;20043;-79
2021/06/04 00:04:23;;;;;;;12.50;11.23;;;20.00;70.70;;;;;;5028671;28;20368;-80
2021/06/04 00:06:49;;;;;;;12.60;11.43;;;20.00;70.40;;;;;;5001893;28;20122;-80
2021/06/04 00:09:15;;;;;;;13.52;12.30;;;20.00;71.30;;;;;;5006861;28;20037;-80
2021/06/04 00:11:52;;;;;;;19.38;16.67;;;20.00;71.70;;;;;;5015534;28;20033;-80
2021/06/04 00:14:27;;;;;;;19.90;17.52;;;19.90;70.00;;;;;;5023771;28;20269;-81
2021/06/04 00:17:14;;;;;;;16.92;15.20;;;19.90;71.60;;;;;;5039258;28;20401;-80
2021/06/04 00:19:40;;;;;;;20.95;16.65;;;19.90;71.30;;;;;;5034286;28;20033;-80
2021/06/04 00:22:12;;;;;;;21.05;18.92;;;19.70;70.90;;;;;;5007094;28;20103;-81
2021/06/04 00:24:39;;;;;;;15.65;13.85;;;19.70;72.30;;;;;;5032181;28;20052;-80
2021/06/04 00:27:06;;;;;;;8.95;8.02;;;19.70;72.40;;;;;;5021772;28;20032;-80
2021/06/04 00:29:31;;;;;;;9.93;8.43;;;19.70;72.60;;;;;;4999739;28;20503;-80
2021/06/04 00:31:57;;;;;;;12.00;10.00;;;19.80;72.30;;;;;;5004045;28;20120;-80
2021/06/04 00:34:22;;;;;;;9.38;8.45;;;19.90;72.50;;;;;;5036094;28;20132;-80
2021/06/04 00:36:48;;;;;;;13.02;11.70;;;19.90;74.50;;;;;;5033069;28;20116;-80
2021/06/04 00:39:16;;;;;;;12.82;11.20;;;20.00;72.30;;;;;;5015600;28;20030;-80
2021/06/04 00:41:44;;;;;;;9.60;8.65;;;20.00;74.10;;;;;;5016667;28;20132;-80
2021/06/04 00:44:09;;;;;;;13.23;10.77;;;20.10;75.60;;;;;;5039554;28;20028;-80
2021/06/04 00:46:35;;;;;;;10.70;9.52;;;20.10;75.20;;;;;;5037159;28;20052;-80
2021/06/04 00:49:01;;;;;;;8.63;7.78;;;20.10;76.60;;;;;;5024346;28;20048;-80
2021/06/04 00:51:32;;;;;;;12.52;8.07;;;20.10;76.80;;;;;;5019688;28;20128;-80
2021/06/04 00:53:58;;;;;;;11.90;9.50;;;20.10;77.70;;;;;;5034385;28;20091;-80
2021/06/04 00:56:24;;;;;;;10.05;7.38;;;20.00;75.90;;;;;;5020979;28;20034;-80
2021/06/04 00:58:50;;;;;;;16.92;15.23;;;20.00;77.90;;;;;;5003419;28;20063;-80
2021/06/04 01:01:17;;;;;;;8.70;7.90;;;20.00;77.00;;;;;;5023110;28;20037;-80
2021/06/04 01:03:46;;;;;;;11.77;10.73;;;19.90;77.00;;;;;;5005761;28;20406;-80
2021/06/04 01:06:32;;;;;;;11.23;9.50;;;19.70;76.80;;;;;;5035320;28;20120;-80
2021/06/04 01:09:00;;;;;;;17.95;15.93;;;19.80;81.00;;;;;;4998925;28;20060;-80
2021/06/04 01:11:44;;;;;;;10.60;9.52;;;19.70;78.10;;;;;;5038946;28;20025;-81
2021/06/04 01:14:47;;;;;;;10.13;9.15;;;19.60;77.10;;;;;;5023954;28;20076;-80
2021/06/04 01:17:51;;;;;;;18.52;15.32;;;19.60;77.40;;;;;;5027464;28;20044;-80
2021/06/04 01:20:27;;;;;;;20.05;16.40;;;19.50;77.30;;;;;;5035167;28;20034;-81
2021/06/04 01:22:58;;;;;;;13.90;10.40;;;19.50;77.60;;;;;;5023623;28;20144;-81
2021/06/04 01:25:40;;;;;;;15.63;13.98;;;19.40;77.60;;;;;;5033906;28;20041;-81
2021/06/04 01:28:17;;;;;;;8.90;7.90;;;19.40;77.30;;;;;;5016711;28;20040;-80
2021/06/04 01:30:50;;;;;;;8.85;8.05;;;19.50;77.80;;;;;;5016240;28;20032;-81
2021/06/04 01:33:18;;;;;;;11.48;9.63;;;19.60;79.20;;;;;;5018303;28;20042;-81
2021/06/04 01:35:48;;;;;;;10.13;9.05;;;19.60;79.20;;;;;;5034448;28;20532;-81
2021/06/04 01:38:14;;;;;;;13.07;11.88;;;19.60;77.90;;;;;;5010655;28;20414;-80
2021/06/04 01:40:42;;;;;;;12.20;11.10;;;19.60;78.50;;;;;;5020883;28;20028;-80
2021/06/04 01:43:13;;;;;;;11.73;9.77;;;19.80;81.60;;;;;;5035023;28;20039;-80
2021/06/04 01:45:41;;;;;;;13.40;12.00;;;19.70;82.20;;;;;;4995949;28;20036;-81
2021/06/04 01:48:11;;;;;;;17.95;15.98;;;19.60;79.50;;;;;;5003369;28;20386;-80
2021/06/04 01:50:43;;;;;;;14.40;12.82;;;19.50;79.60;;;;;;5027283;28;20044;-80
2021/06/04 01:53:16;;;;;;;10.18;8.77;;;19.40;80.10;;;;;;5036254;28;20343;-80
2021/06/04 01:55:44;;;;;;;9.32;8.43;;;19.40;79.60;;;;;;5035373;28;20159;-80
2021/06/04 01:58:37;;;;;;;10.70;9.50;;;19.40;79.40;;;;;;5029678;28;20029;-80
2021/06/04 02:01:10;;;;;;;10.07;9.13;;;19.60;82.90;;;;;;5023991;28;20086;-80
2021/06/04 02:03:36;;;;;;;10.75;9.70;;;19.70;82.00;;;;;;5027585;28;20029;-80
2021/06/04 02:06:02;;;;;;;12.15;11.00;;;19.70;84.00;;;;;;5005177;28;20029;-80
2021/06/04 02:08:34;;;;;;;9.32;8.45;;;19.50;79.60;;;;;;5028120;28;20368;-80
2021/06/04 02:11:00;;;;;;;9.02;8.13;;;19.40;82.60;;;;;;5025155;28;20731;-80
2021/06/04 02:13:25;;;;;;;10.40;9.05;;;19.40;80.50;;;;;;5021749;28;20033;-80
2021/06/04 02:16:13;;;;;;;9.60;8.70;;;19.40;81.60;;;;;;5026765;28;20033;-80
2021/06/04 02:19:18;;;;;;;11.40;10.07;;;19.50;82.20;;;;;;5008484;28;20033;-80
2021/06/04 02:22:16;;;;;;;11.00;8.93;;;19.60;82.50;;;;;;5046433;28;20034;-81
2021/06/04 02:24:44;;;;;;;11.63;10.48;;;19.50;84.40;;;;;;5027903;28;20408;-80
2021/06/04 02:27:14;;;;;;;9.57;8.68;;;19.50;83.10;;;;;;5022976;28;20041;-81
2021/06/04 02:29:52;;;;;;;12.07;10.93;;;19.40;82.80;;;;;;5021740;28;20426;-81
2021/06/04 02:32:25;;;;;;;10.65;9.55;;;19.30;82.10;;;;;;5025330;28;20033;-80
2021/06/04 02:35:04;;;;;;;16.45;14.30;;;19.20;83.40;;;;;;5035601;28;20038;-81
2021/06/04 02:37:36;;;;;;;13.10;11.80;;;19.20;82.10;;;;;;5027664;28;20047;-80
2021/06/04 02:40:11;;;;;;;12.68;10.93;;;19.20;82.00;;;;;;5027270;28;20164;-80
2021/06/04 02:42:42;;;;;;;10.98;9.75;;;19.20;82.20;;;;;;5028176;28;20029;-80
2021/06/04 02:45:18;;;;;;;10.70;9.18;;;19.30;85.30;;;;;;5028755;28;20034;-80
2021/06/04 02:47:46;;;;;;;11.00;9.82;;;19.50;84.20;;;;;;5022892;28;20036;-80
2021/06/04 02:50:31;;;;;;;17.10;15.35;;;19.40;84.90;;;;;;5023815;28;20049;-81
2021/06/04 02:53:21;;;;;;;18.30;15.95;;;19.20;83.40;;;;;;5035921;28;20036;-80
2021/06/04 02:56:13;;;;;;;19.38;15.35;;;19.10;83.10;;;;;;5029917;28;20082;-81
2021/06/04 02:58:39;;;;;;;9.80;8.65;;;19.00;83.30;;;;;;5039537;28;20041;-80
2021/06/04 03:01:06;;;;;;;12.68;10.15;;;19.00;84.00;;;;;;5012835;28;20037;-80
2021/06/04 03:03:31;;;;;;;11.25;10.18;;;19.10;84.80;;;;;;5020081;28;20026;-80
2021/06/04 03:05:57;;;;;;;8.88;7.75;;;19.20;84.80;;;;;;5006666;28;20392;-81
2021/06/04 03:08:24;;;;;;;10.35;9.15;;;19.20;85.30;;;;;;5009184;28;20025;-80
2021/06/04 03:10:52;;;;;;;19.48;15.10;;;19.20;83.70;;;;;;5011231;28;20022;-81
2021/06/04 03:13:22;;;;;;;17.92;16.00;;;19.20;83.90;;;;;;5011959;28;20505;-81
2021/06/04 03:15:50;;;;;;;10.77;9.65;;;19.00;83.30;;;;;;5022345;28;20071;-80
2021/06/04 03:18:18;;;;;;;19.77;16.73;;;19.10;83.70;;;;;;5031006;28;20382;-81
2021/06/04 03:20:44;;;;;;;20.80;16.65;;;18.90;85.50;;;;;;5037827;28;20064;-81
2021/06/04 03:23:12;;;;;;;32.15;18.48;;;18.90;84.90;;;;;;5025036;28;20052;-81
2021/06/04 03:25:43;;;;;;;20.05;17.75;;;18.90;84.10;;;;;;5035861;28;20212;-81
2021/06/04 03:28:11;;;;;;;22.85;18.02;;;18.80;85.00;;;;;;5021118;28;20040;-80
2021/06/04 03:30:38;;;;;;;26.58;19.63;;;18.80;84.50;;;;;;4999162;28;20061;-81
2021/06/04 03:33:04;;;;;;;23.70;19.52;;;18.70;87.20;;;;;;5023055;28;20552;-81
2021/06/04 03:35:30;;;;;;;24.67;20.38;;;18.70;87.70;;;;;;5026731;28;20033;-80
2021/06/04 03:37:56;;;;;;;24.13;20.10;;;18.70;88.00;;;;;;5026676;28;20416;-80
2021/06/04 03:40:22;;;;;;;18.92;15.50;;;18.70;88.90;;;;;;5023688;28;20465;-81
2021/06/04 03:42:48;;;;;;;22.77;19.83;;;18.70;87.90;;;;;;5027779;28;20397;-80
2021/06/04 03:45:17;;;;;;;11.23;9.93;;;18.80;85.80;;;;;;5037402;28;20030;-81
2021/06/04 03:47:43;;;;;;;10.10;9.00;;;18.90;85.60;;;;;;5034565;28;20028;-81
2021/06/04 03:50:09;;;;;;;15.18;11.80;;;19.00;84.40;;;;;;5026506;28;20033;-81
2021/06/04 03:52:34;;;;;;;16.73;14.93;;;19.00;84.20;;;;;;5040685;28;20025;-81
2021/06/04 03:55:00;;;;;;;19.63;17.52;;;18.90;84.70;;;;;;5025914;28;20119;-81
2021/06/04 03:57:29;;;;;;;20.70;18.15;;;18.80;85.90;;;;;;5020666;28;20068;-80
2021/06/04 03:59:54;;;;;;;19.92;17.83;;;18.80;86.60;;;;;;5023294;28;20087;-81
2021/06/04 04:02:21;;;;;;;23.25;19.67;;;18.70;87.90;;;;;;5024807;28;20400;-80
2021/06/04 04:04:46;;;;;;;14.68;13.10;;;18.70;88.30;;;;;;5042363;28;20704;-80
2021/06/04 04:07:12;;;;;;;12.00;10.75;;;18.80;85.70;;;;;;5036839;28;20033;-81
2021/06/04 04:09:38;;;;;;;9.05;8.13;;;18.90;85.30;;;;;;5026603;28;20393;-81
2021/06/04 04:12:03;;;;;;;8.82;8.02;;;18.90;84.80;;;;;;5028902;28;20033;-81
2021/06/04 04:14:29;;;;;;;9.77;8.77;;;18.90;84.60;;;;;;5027458;28;20045;-80
2021/06/04 04:16:54;;;;;;;18.55;15.82;;;19.00;84.70;;;;;;5016570;28;20493;-80
2021/06/04 04:19:22;;;;;;;19.30;16.45;;;18.80;85.50;;;;;;5008685;28;20465;-80
2021/06/04 04:21:48;;;;;;;26.02;21.58;;;18.70;87.70;;;;;;5017406;28;20036;-81
2021/06/04 04:24:19;;;;;;;24.13;19.50;;;18.70;88.30;;;;;;5016622;28;20053;-81
2021/06/04 04:26:45;;;;;;;24.35;20.38;;;18.70;89.30;;;;;;5005822;28;20497;-81
2021/06/04 04:29:11;;;;;;;25.58;19.90;;;18.80;90.30;;;;;;5024410;28;20225;-81
2021/06/04 04:31:41;;;;;;;24.38;20.55;;;18.80;90.20;;;;;;5036543;28;20048;-81
2021/06/04 04:34:07;;;;;;;24.45;19.88;;;18.80;90.50;;;;;;5026677;28;20044;-81
2021/06/04 04:36:36;;;;;;;27.92;21.35;;;18.80;90.60;;;;;;5015500;28;20424;-81
2021/06/04 04:39:03;;;;;;;26.40;21.35;;;19.00;91.00;;;;;;5009129;28;20028;-80
2021/06/04 04:41:30;;;;;;;23.65;21.25;;;19.00;90.80;;;;;;5011509;28;20036;-81
2021/06/04 04:43:55;;;;;;;10.98;9.88;;;19.10;90.80;;;;;;5020782;28;20426;-81
2021/06/04 04:46:24;;;;;;;9.40;8.50;;;19.20;90.50;;;;;;5010298;28;20029;-81
2021/06/04 04:48:50;;;;;;;8.35;7.53;;;19.20;90.40;;;;;;4998359;28;20493;-81
2021/06/04 04:51:15;;;;;;;8.93;7.50;;;19.30;90.30;;;;;;5003790;28;20041;-81
2021/06/04 04:53:41;;;;;;;11.38;9.52;;;19.30;88.40;;;;;;5035432;28;20062;-81
2021/06/04 04:56:07;;;;;;;10.93;9.80;;;19.40;87.80;;;;;;5021201;28;20029;-81
2021/06/04 04:58:33;;;;;;;9.77;8.70;;;19.40;88.50;;;;;;5008897;28;20393;-82
2021/06/04 05:00:59;;;;;;;19.48;17.35;;;19.40;87.70;;;;;;4994025;28;20033;-81
2021/06/04 05:03:26;;;;;;;20.70;16.70;;;19.50;88.10;;;;;;5013377;28;20048;-82
2021/06/04 05:05:51;;;;;;;16.98;15.30;;;19.50;88.20;;;;;;5006387;28;20029;-82
2021/06/04 05:08:17;;;;;;;13.70;11.98;;;19.50;89.00;;;;;;5021726;28;20026;-81
2021/06/04 05:10:42;;;;;;;13.77;12.40;;;19.50;88.70;;;;;;5027679;28;20026;-81
2021/06/04 05:13:08;;;;;;;14.75;13.32;;;19.50;88.70;;;;;;5023694;28;20025;-82
2021/06/04 05:15:35;;;;;;;22.33;19.58;;;19.50;89.20;;;;;;4998971;28;20044;-82
2021/06/04 05:18:01;;;;;;;20.38;17.45;;;19.60;89.30;;;;;;5008188;28;20040;-82
2021/06/04 05:20:26;;;;;;;19.15;17.17;;;19.70;86.20;;;;;;5027652;28;20017;-82
2021/06/04 05:22:53;;;;;;;8.60;7.57;;;19.80;86.20;;;;;;5009942;28;20504;-82
2021/06/04 05:25:21;;;;;;;8.57;7.70;;;19.90;84.10;;;;;;5028085;28;20041;-82
2021/06/04 05:27:47;;;;;;;12.43;9.35;;;20.00;84.50;;;;;;5017351;28;20045;-82
2021/06/04 05:30:16;;;;;;;10.02;8.55;;;20.10;82.80;;;;;;5039352;28;20025;-82
2021/06/04 05:32:42;;;;;;;9.02;8.13;;;20.30;82.70;;;;;;5024973;28;20033;-82
2021/06/04 05:35:08;;;;;;;12.45;10.82;;;20.50;83.00;;;;;;5006026;28;20055;-81
2021/06/04 05:37:34;;;;;;;8.02;7.22;;;20.70;84.20;;;;;;5026605;28;20025;-81
2021/06/04 05:39:59;;;;;;;12.75;11.50;;;20.90;82.90;;;;;;5019844;28;20036;-81
2021/06/04 05:42:25;;;;;;;18.92;16.35;;;21.10;85.50;;;;;;5007503;28;20125;-80
2021/06/04 05:44:52;;;;;;;20.48;15.05;;;21.30;85.80;;;;;;5007084;28;20049;-81
2021/06/04 05:47:18;;;;;;;13.48;10.88;;;21.40;86.90;;;;;;5024546;28;20053;-83
2021/06/04 05:49:43;;;;;;;16.67;12.90;;;21.60;87.30;;;;;;5028655;28;20038;-81
2021/06/04 05:52:09;;;;;;;18.48;16.25;;;21.70;87.60;;;;;;5025089;28;20117;-82
2021/06/04 05:54:37;;;;;;;16.92;13.50;;;22.00;88.20;;;;;;5038841;28;20037;-82
2021/06/04 05:57:04;;;;;;;14.90;12.95;;;22.10;87.90;;;;;;5023634;28;20044;-82
2021/06/04 05:59:29;;;;;;;15.90;14.15;;;22.20;88.10;;;;;;5022304;28;20563;-81
2021/06/04 06:01:55;;;;;;;12.52;9.48;;;22.20;88.30;;;;;;5009863;28;20052;-81
2021/06/04 06:04:23;;;;;;;14.77;11.60;;;22.40;85.90;;;;;;5028368;28;20115;-81
2021/06/04 06:06:51;;;;;;;21.08;16.70;;;22.50;88.70;;;;;;5018710;28;20029;-81
2021/06/04 06:09:17;;;;;;;15.90;14.07;;;22.70;89.10;;;;;;5025642;28;20041;-81
2021/06/04 06:11:43;;;;;;;24.65;19.02;;;22.90;90.30;;;;;;5023373;28;20451;-81
2021/06/04 06:14:09;;;;;;;22.10;19.80;;;23.10;90.60;;;;;;5021272;28;20033;-81
2021/06/04 06:16:35;;;;;;;11.48;10.18;;;23.30;90.60;;;;;;5018021;28;20038;-81
2021/06/04 06:19:00;;;;;;;17.58;15.77;;;23.30;86.10;;;;;;5001740;28;20036;-82
2021/06/04 06:21:26;;;;;;;9.70;8.73;;;23.30;89.70;;;;;;5024479;28;20397;-81
2021/06/04 06:23:51;;;;;;;14.60;12.95;;;23.20;84.30;;;;;;4997873;28;20413;-82
2021/06/04 06:26:22;;;;;;;14.52;13.02;;;23.30;89.20;;;;;;5010576;28;20046;-82
2021/06/04 06:28:55;;;;;;;19.88;16.92;;;23.40;89.60;;;;;;4867980;28;10000719;-82
2021/06/04 06:31:23;;;;;;;24.33;20.10;;;23.60;90.20;;;;;;4655982;28;10000276;-82
2021/06/04 06:33:49;;;;;;;21.02;18.77;;;23.90;90.30;;;;;;4999995;28;20093;-82
2021/06/04 06:36:16;;;;;;;23.35;19.67;;;24.10;90.10;;;;;;5003558;28;20036;-82
2021/06/04 06:38:42;;;;;;;25.63;21.02;;;24.30;90.50;;;;;;5005465;28;20485;-82
2021/06/04 06:41:09;;;;;;;31.10;26.25;;;24.40;90.90;;;;;;5032701;28;20044;-83
2021/06/04 06:43:35;;;;;;;39.03;29.48;;;24.60;91.00;;;;;;5020362;28;20493;-83
2021/06/04 06:46:01;;;;;;;36.80;29.60;;;24.80;91.50;;;;;;5003430;28;20017;-84
2021/06/04 06:48:27;;;;;;;35.08;28.55;;;24.90;91.20;;;;;;5012446;28;20285;-84
2021/06/04 06:50:53;;;;;;;33.25;26.70;;;25.00;91.30;;;;;;5005934;28;20030;-83
2021/06/04 06:53:19;;;;;;;36.20;29.00;;;25.10;91.50;;;;;;5006918;28;20041;-84
2021/06/04 06:55:45;;;;;;;31.35;26.02;;;25.10;91.30;;;;;;5007193;28;20760;-83
2021/06/04 06:58:12;;;;;;;34.03;26.83;;;25.20;90.90;;;;;;5002159;28;20474;-84
2021/06/04 07:00:41;;;;;;;34.85;27.75;;;25.30;91.40;;;;;;5019965;28;20083;-83
2021/06/04 07:03:06;;;;;;;30.95;25.45;;;25.40;90.80;;;;;;5008150;28;20428;-80
2021/06/04 07:05:32;;;;;;;32.50;28.17;;;25.40;90.80;;;;;;5009377;28;20030;-82
2021/06/04 07:07:58;;;;;;;36.67;28.30;;;25.40;90.30;;;;;;5040707;28;20021;-82
2021/06/04 07:10:26;;;;;;;37.67;29.38;;;25.50;90.50;;;;;;5041673;28;20033;-82
2021/06/04 07:12:52;;;;;;;29.83;23.80;;;25.60;90.40;;;;;;5021803;28;20033;-82
2021/06/04 07:15:18;;;;;;;33.45;27.75;;;25.70;89.80;;;;;;5022935;28;20052;-82
2021/06/04 07:17:44;;;;;;;34.80;27.85;;;25.70;90.00;;;;;;5021118;28;20043;-83
2021/06/04 07:20:11;;;;;;;32.85;25.83;;;25.80;90.00;;;;;;5033792;28;20041;-82
2021/06/04 07:22:37;;;;;;;37.08;29.92;;;25.90;89.70;;;;;;4990597;28;20068;-84
2021/06/04 07:25:08;;;;;;;37.38;29.20;;;25.90;89.80;;;;;;5003748;28;20132;-81
2021/06/04 07:27:34;;;;;;;34.95;28.17;;;25.90;88.90;;;;;;5023465;28;20534;-82
2021/06/04 07:30:00;;;;;;;30.65;26.50;;;25.90;89.20;;;;;;5035113;28;20147;-82
2021/06/04 07:32:26;;;;;;;29.50;26.25;;;26.00;89.20;;;;;;5024669;28;20057;-82
2021/06/04 07:34:51;;;;;;;34.33;28.15;;;26.00;88.80;;;;;;5040975;28;20120;-82
2021/06/04 07:37:23;;;;;;;39.80;31.08;;;26.20;88.80;;;;;;5044060;28;20113;-81
2021/06/04 07:39:49;;;;;;;40.33;31.73;;;26.40;88.90;;;;;;5024221;28;20040;-82
2021/06/04 07:42:14;;;;;;;37.33;30.85;;;26.60;89.20;;;;;;5032609;28;20248;-82
2021/06/04 07:44:42;;;;;;;33.20;25.55;;;26.90;89.30;;;;;;5023553;28;20376;-81
2021/06/04 07:47:07;;;;;;;26.17;20.58;;;27.10;89.10;;;;;;5016442;28;20607;-81
2021/06/04 07:49:33;;;;;;;40.75;28.23;;;27.20;87.60;;;;;;5038858;28;20043;-82
2021/06/04 07:51:59;;;;;;;38.65;30.60;;;27.30;87.60;;;;;;5017326;28;20095;-82
2021/06/04 07:54:26;;;;;;;35.75;28.52;;;27.50;86.10;;;;;;5019784;28;20037;-82
2021/06/04 07:56:51;;;;;;;38.92;31.55;;;27.70;86.00;;;;;;5021305;28;20589;-82
2021/06/04 07:59:17;;;;;;;32.90;28.17;;;28.10;86.60;;;;;;5001314;28;20038;-82
2021/06/04 08:01:42;;;;;;;22.67;18.98;;;28.20;84.80;;;;;;5035661;28;20029;-82
2021/06/04 08:04:08;;;;;;;27.48;21.55;;;28.20;80.70;;;;;;5020413;28;20040;-83
2021/06/04 08:06:34;;;;;;;37.60;30.75;;;28.20;84.30;;;;;;5038999;28;20500;-82
2021/06/04 08:08:59;;;;;;;35.17;27.90;;;28.50;83.70;;;;;;5032800;28;20097;-82
2021/06/04 08:11:31;;;;;;;29.83;23.88;;;28.70;83.00;;;;;;5022499;28;20489;-82
2021/06/04 08:14:00;;;;;;;32.42;27.98;;;28.90;82.90;;;;;;5025419;28;20484;-83
2021/06/04 08:16:25;;;;;;;43.15;30.05;;;29.00;81.80;;;;;;5011316;28;20098;-82
2021/06/04 08:18:52;;;;;;;38.83;30.10;;;29.30;83.40;;;;;;5000731;28;20041;-83
2021/06/04 08:21:23;;;;;;;29.55;22.42;;;29.50;81.70;;;;;;5006323;28;20030;-81
2021/06/04 08:23:48;;;;;;;29.50;26.10;;;29.50;79.50;;;;;;5023877;28;20115;-83
2021/06/04 08:26:16;;;;;;;38.58;31.75;;;29.60;80.00;;;;;;5022371;28;20116;-82
2021/06/04 08:28:42;;;;;;;38.38;32.33;;;29.80;79.90;;;;;;5024998;28;20029;-82
2021/06/04 08:31:08;;;;;;;26.98;22.75;;;30.30;80.30;;;;;;5021207;28;20033;-82
2021/06/04 08:33:36;;;;;;;37.83;30.15;;;30.40;77.20;;;;;;5007667;28;20098;-82
2021/06/04 08:36:04;;;;;;;36.95;31.58;;;30.70;77.20;;;;;;5021264;28;20028;-82
2021/06/04 08:38:32;;;;;;;37.35;30.92;;;31.00;77.00;;;;;;5023715;28;20541;-81
2021/06/04 08:41:04;;;;;;;35.63;29.58;;;31.20;76.00;;;;;;5013469;28;20118;-80
2021/06/04 08:43:49;;;;;;;27.48;20.40;;;31.50;74.40;;;;;;5012972;28;20494;-79
2021/06/04 08:46:20;;;;;;;37.83;30.17;;;31.60;73.80;;;;;;5019284;28;20290;-79
2021/06/04 08:48:54;;;;;;;38.97;30.83;;;31.80;74.30;;;;;;5011671;28;20264;-80
2021/06/04 08:51:21;;;;;;;15.30;13.77;;;32.20;72.30;;;;;;5022005;28;20037;-79
2021/06/04 08:54:17;;;;;;;28.95;24.50;;;32.30;70.70;;;;;;5040167;28;20036;-78
2021/06/04 08:56:54;;;;;;;31.70;26.13;;;32.50;71.10;;;;;;5023497;28;20044;-79
2021/06/04 08:59:19;;;;;;;32.65;26.58;;;32.90;71.50;;;;;;5024599;28;20033;-78
2021/06/04 09:01:59;;;;;;;24.63;18.25;;;33.10;66.90;;;;;;5037516;28;20031;-79
2021/06/04 09:04:28;;;;;;;19.48;15.65;;;33.30;67.10;;;;;;5024762;28;20032;-78
2021/06/04 09:07:22;;;;;;;22.02;17.67;;;33.10;64.60;;;;;;5021516;28;20527;-77
2021/06/04 09:10:16;;;;;;;28.20;24.38;;;33.20;65.80;;;;;;5002378;28;20041;-78
2021/06/04 09:12:54;;;;;;;24.17;19.42;;;33.90;65.60;;;;;;5035440;28;20081;-78
2021/06/04 09:15:23;;;;;;;26.83;23.48;;;34.60;64.00;;;;;;5026274;28;20068;-77
2021/06/04 09:18:00;;;;;;;18.63;16.42;;;35.10;62.50;;;;;;5023591;28;20049;-77
2021/06/04 09:20:39;;;;;;;25.88;20.98;;;35.10;59.70;;;;;;5005525;28;20053;-77
2021/06/04 09:23:07;;;;;;;27.70;24.85;;;35.40;60.90;;;;;;5015986;28;20551;-76
2021/06/04 09:25:33;;;;;;;19.95;16.58;;;35.70;57.90;;;;;;5013697;28;20034;-76
2021/06/04 09:28:11;;;;;;;27.50;24.48;;;35.60;58.70;;;;;;5019888;28;20032;-76
2021/06/04 09:30:42;;;;;;;21.48;19.20;;;35.50;58.60;;;;;;5031062;28;20029;-76
2021/06/04 09:33:12;;;;;;;17.77;15.63;;;35.40;57.70;;;;;;5032929;28;20048;-76
2021/06/04 09:35:40;;;;;;;19.10;16.70;;;35.30;57.30;;;;;;5018723;28;20026;-76
2021/06/04 09:38:10;;;;;;;14.13;12.65;;;35.10;55.70;;;;;;5019561;28;20022;-77
2021/06/04 09:40:36;;;;;;;23.75;18.48;;;34.90;55.90;;;;;;5035945;28;20513;-77
2021/06/04 09:43:01;;;;;;;16.95;14.82;;;34.80;55.70;;;;;;5012817;28;20091;-76
2021/06/04 09:45:27;;;;;;;25.70;22.73;;;34.60;55.50;;;;;;5035401;28;20116;-76
2021/06/04 09:48:06;;;;;;;19.80;17.80;;;34.50;54.80;;;;;;5040875;28;20021;-76
2021/06/04 09:50:42;;;;;;;14.15;11.68;;;34.30;54.90;;;;;;5012383;28;20478;-76
2021/06/04 09:53:07;;;;;;;17.42;13.73;;;34.10;54.40;;;;;;5038239;28;20394;-76
2021/06/04 09:55:36;;;;;;;15.65;14.05;;;33.90;55.40;;;;;;5033288;28;20022;-76
2021/06/04 09:58:12;;;;;;;22.63;18.33;;;33.80;55.10;;;;;;5004290;28;20041;-76
2021/06/04 10:00:44;;;;;;;15.98;13.55;;;34.10;55.90;;;;;;5033547;28;20043;-76
2021/06/04 10:03:35;;;;;;;13.52;12.23;;;34.30;54.70;;;;;;5029439;28;20469;-76
2021/06/04 10:06:10;;;;;;;16.58;13.98;;;34.30;55.30;;;;;;5022438;28;20258;-77
2021/06/04 10:08:57;;;;;;;14.38;13.02;;;34.60;55.10;;;;;;5052857;28;20225;-76
2021/06/04 10:11:27;;;;;;;15.98;13.98;;;34.80;54.70;;;;;;5004044;28;20079;-77
2021/06/04 10:14:13;;;;;;;13.40;12.10;;;35.20;53.60;;;;;;5053246;28;20512;-76
2021/06/04 10:19:33;;;;;;;13.88;11.88;;;35.60;53.50;;;;;;5041940;28;20037;-76
2021/06/04 10:22:27;;;;;;;13.02;10.85;;;35.90;54.20;;;;;;5038526;28;20037;-76
2021/06/04 10:25:13;;;;;;;14.25;12.63;;;36.40;52.90;;;;;;5040356;28;20500;-76
2021/06/04 10:27:43;;;;;;;21.63;17.20;;;36.70;52.80;;;;;;5047883;28;20112;-76
2021/06/04 10:30:35;;;;;;;28.02;20.20;;;37.20;50.20;;;;;;5029584;28;20092;-77
2021/06/04 10:33:28;;;;;;;21.67;16.80;;;37.40;48.20;;;;;;5036643;28;20582;-77
2021/06/04 10:36:00;;;;;;;9.93;9.05;;;37.50;48.90;;;;;;5038359;28;20056;-76
2021/06/04 10:38:32;;;;;;;11.20;10.18;;;37.40;47.50;;;;;;5035735;28;20037;-76
2021/06/04 10:40:59;;;;;;;15.70;14.18;;;37.30;49.10;;;;;;5037469;28;20087;-76
2021/06/04 10:43:44;;;;;;;21.05;18.85;;;37.30;48.00;;;;;;5018116;28;20494;-77
2021/06/04 10:46:16;;;;;;;18.33;15.43;;;37.60;47.20;;;;;;5040455;28;20071;-76
2021/06/04 10:48:47;;;;;;;14.70;13.27;;;37.70;46.00;;;;;;5022650;28;20064;-76
2021/06/04 10:51:28;;;;;;;20.13;15.40;;;37.80;46.20;;;;;;4341525;28;10001118;-77
2021/06/04 10:54:19;;;;;;;12.30;11.10;;;37.80;46.20;;;;;;5034716;28;20562;-77
2021/06/04 10:57:08;;;;;;;12.90;11.00;;;38.20;46.30;;;;;;5020379;28;20049;-77
2021/06/04 10:59:51;;;;;;;15.10;13.23;;;38.30;45.90;;;;;;5018198;28;20544;-76
2021/06/04 11:02:28;;;;;;;15.90;14.18;;;38.70;45.10;;;;;;5035345;28;20431;-77
2021/06/04 11:05:10;;;;;;;11.15;9.80;;;38.90;43.40;;;;;;5035510;28;20461;-76
2021/06/04 11:07:44;;;;;;;14.57;13.07;;;39.00;42.80;;;;;;5032976;28;20018;-76
2021/06/04 11:10:47;;;;;;;12.77;11.67;;;39.00;42.30;;;;;;5032727;28;20038;-76
2021/06/04 11:13:24;;;;;;;15.30;12.80;;;39.10;42.20;;;;;;5037366;28;20029;-77
2021/06/04 11:15:56;;;;;;;20.33;15.57;;;39.20;42.40;;;;;;5024554;28;20378;-76
2021/06/04 11:18:31;;;;;;;15.57;13.95;;;39.30;41.30;;;;;;5035075;28;20029;-77
2021/06/04 11:20:57;;;;;;;14.85;13.32;;;39.60;41.90;;;;;;5031863;28;20021;-77
2021/06/04 11:23:48;;;;;;;10.73;9.82;;;39.50;40.60;;;;;;5032061;28;20524;-77
2021/06/04 11:26:23;;;;;;;12.45;11.32;;;39.60;42.50;;;;;;4678629;28;10000322;-77
2021/06/04 11:29:02;;;;;;;17.83;16.02;;;39.40;42.70;;;;;;5032756;28;20033;-77
2021/06/04 11:31:57;;;;;;;13.60;12.15;;;39.70;40.20;;;;;;5027687;28;20068;-77
2021/06/04 11:34:27;;;;;;;10.90;9.80;;;39.70;40.40;;;;;;5033333;28;20041;-76
2021/06/04 11:36:53;;;;;;;15.93;13.88;;;40.00;40.40;;;;;;5018362;28;20038;-77
2021/06/04 11:39:39;;;;;;;10.85;9.50;;;40.10;39.50;;;;;;5003500;28;20048;-77
2021/06/04 11:42:13;;;;;;;11.40;10.25;;;40.20;39.80;;;;;;5033005;28;20572;-77
2021/06/04 11:44:48;;;;;;;13.05;11.85;;;40.20;39.70;;;;;;5032633;28;20477;-77
2021/06/04 11:47:17;;;;;;;13.55;12.27;;;40.20;40.30;;;;;;5002649;28;20075;-77
2021/06/04 11:50:02;;;;;;;17.23;15.48;;;40.60;39.30;;;;;;5035303;28;20041;-76
2021/06/04 11:52:27;;;;;;;;;;;40.90;38.00;;;;;;5036417;28;20098;-77
2021/06/04 11:55:19;;;;;;;11.30;10.15;;;41.00;38.70;;;;;;5037930;28;19928;-77
2021/06/04 11:58:18;;;;;;;13.10;10.25;;;41.40;39.30;;;;;;5036115;28;20033;-77
2021/06/04 12:00:48;;;;;;;15.65;13.90;;;41.30;39.40;;;;;;5030139;28;20064;-77
2021/06/04 12:03:15;;;;;;;19.90;17.95;;;41.40;37.50;;;;;;5041096;28;20033;-78
2021/06/04 12:05:41;;;;;;;14.90;13.02;;;41.70;36.10;;;;;;5040774;28;20044;-78
2021/06/04 12:08:25;;;;;;;19.77;17.80;;;41.70;36.70;;;;;;5019660;28;20108;-77
2021/06/04 12:11:02;;;;;;;17.67;16.02;;;41.80;35.60;;;;;;5035535;28;20033;-78
2021/06/04 12:13:49;;;;;;;21.88;18.35;;;41.90;35.50;;;;;;5035284;28;20116;-78
2021/06/04 12:16:21;;;;;;;18.88;17.08;;;41.70;34.90;;;;;;5043142;28;20024;-78
2021/06/04 12:18:52;;;;;;;19.60;17.90;;;41.40;35.10;;;;;;5037504;28;20053;-78
2021/06/04 12:21:40;;;;;;;13.02;11.95;;;40.90;35.50;;;;;;5019328;28;22124;-78
2021/06/04 12:24:20;;;;;;;14.57;13.07;;;40.60;36.20;;;;;;5036658;28;20025;-78
2021/06/04 12:27:08;;;;;;;15.98;14.40;;;40.30;36.50;;;;;;5029516;28;20026;-78
2021/06/04 12:29:37;;;;;;;17.35;15.82;;;40.00;36.50;;;;;;5040421;28;20113;-77
2021/06/04 12:32:38;;;;;;;16.75;15.15;;;40.00;36.60;;;;;;5020104;28;20090;-78
2021/06/04 12:35:05;;;;;;;17.40;14.63;;;40.20;36.60;;;;;;5030640;28;20144;-77
2021/06/04 12:37:38;;;;;;;13.75;12.30;;;40.30;37.40;;;;;;5021940;28;20033;-78
2021/06/04 12:40:26;;;;;;;20.35;15.75;;;40.50;36.60;;;;;;5023605;28;20520;-77
2021/06/04 12:43:04;;;;;;;13.15;11.85;;;40.60;36.30;;;;;;5037328;28;20032;-78
2021/06/04 12:45:33;;;;;;;14.75;13.35;;;40.90;36.50;;;;;;5035311;28;20033;-78
2021/06/04 12:48:13;;;;;;;13.85;12.55;;;41.00;36.90;;;;;;5037330;28;20028;-79
2021/06/04 12:50:46;;;;;;;12.02;10.93;;;41.20;36.50;;;;;;5019919;28;20068;-77
2021/06/04 12:53:22;;;;;;;10.65;9.52;;;41.40;37.30;;;;;;5034758;28;20115;-78
2021/06/04 12:56:11;;;;;;;13.82;11.85;;;41.60;37.10;;;;;;5039393;28;20091;-77